createdAt,value
2023-01-06T05:38:34.356Z,100.00
2023-01-06T05:50:47.724Z,100.00
2023-01-06T05:53:16.765Z,100.00
2023-01-06T05:55:51.534Z,100.00
2023-01-06T05:58:41.861Z,100.00
2023-01-06T06:14:26.777Z,100.00
2023-01-06T06:17:11.754Z,100.00
2023-01-06T07:02:22.865Z,100.00
2023-01-06T07:04:52.329Z,100.00
2023-01-06T07:07:19.236Z,100.00
2023-01-06T07:09:46.246Z,100.00
2023-01-06T07:12:13.366Z,100.00
2023-01-06T07:14:40.937Z,100.00
2023-01-06T07:17:09.059Z,100.00
2023-01-06T07:19:38.500Z,99.60
2023-01-06T07:22:05.383Z,100.00
2023-01-06T07:24:32.322Z,98.11
2023-01-06T07:26:59.177Z,100.00
2023-01-06T07:29:25.967Z,100.00
2023-01-06T07:31:55.306Z,100.00
2023-01-06T07:34:22.334Z,97.99
2023-01-06T07:36:49.357Z,94.67
2023-01-06T07:39:16.874Z,92.41
2023-01-06T07:41:43.931Z,93.34
2023-01-06T07:44:15.256Z,93.40
2023-01-06T07:46:44.982Z,95.60
2023-01-06T07:49:12.892Z,94.06
2023-01-06T07:51:39.841Z,91.91
2023-01-06T07:54:07.294Z,88.78
2023-01-06T07:56:36.798Z,88.01
2023-01-06T07:59:03.657Z,88.98
2023-01-06T08:01:30.766Z,93.68
2023-01-06T08:03:57.636Z,94.14
2023-01-06T08:06:34.039Z,94.95
2023-01-06T08:09:36.102Z,94.43
2023-01-06T08:12:03.290Z,94.46
2023-01-06T08:14:31.322Z,94.41
2023-01-06T08:17:00.753Z,91.59
2023-01-06T08:19:27.741Z,93.61
2023-01-06T08:21:59.648Z,93.67
2023-01-06T08:24:26.632Z,93.77
2023-01-06T08:26:54.818Z,91.34
2023-01-06T08:29:21.662Z,88.69
2023-01-06T08:31:51.564Z,91.38
2023-01-06T08:34:24.349Z,92.26
2023-01-06T08:36:54.035Z,90.27
2023-01-06T08:39:24.928Z,92.87
2023-01-06T08:41:54.326Z,92.87
2023-01-06T08:45:02.047Z,91.97
2023-01-06T08:48:00.446Z,91.58
2023-01-06T08:50:28.910Z,93.29
2023-01-06T08:53:08.155Z,94.22
2023-01-06T08:55:38.693Z,91.32
2023-01-06T08:58:05.913Z,90.79
2023-01-06T09:00:45.810Z,92.14
2023-01-06T09:04:05.702Z,96.79
2023-01-06T09:12:53.206Z,83.19
2023-01-06T09:16:09.156Z,75.25
2023-01-06T09:21:35.611Z,69.20
2023-01-06T09:24:21.748Z,67.99
2023-01-06T09:30:34.284Z,63.67
2023-01-06T09:33:46.164Z,64.55
2023-01-06T09:43:57.356Z,67.51
2023-01-06T09:46:21.354Z,67.29
2023-01-06T09:49:14.180Z,64.93
2023-01-06T09:56:22.085Z,60.20
2023-01-06T09:59:06.299Z,57.58
2023-01-06T10:01:38.379Z,56.57
2023-01-06T10:04:05.568Z,56.31
2023-01-06T10:07:09.811Z,54.95
2023-01-06T10:09:44.223Z,54.69
2023-01-06T10:12:35.801Z,53.83
2023-01-06T10:15:23.907Z,52.87
2023-01-06T10:18:26.044Z,52.52
2023-01-06T10:20:58.364Z,52.84
2023-01-06T10:23:36.665Z,51.74
2023-01-06T10:26:31.899Z,52.50
2023-01-06T10:29:13.364Z,52.91
2023-01-06T10:31:44.088Z,52.34
2023-01-06T10:34:30.562Z,52.76
2023-01-06T10:37:05.419Z,52.80
2023-01-06T10:39:37.155Z,53.23
2023-01-06T10:43:18.745Z,53.81
2023-01-06T10:45:48.143Z,53.14
2023-01-06T10:48:21.076Z,52.70
2023-01-06T10:50:48.140Z,52.71
2023-01-06T10:56:08.114Z,51.48
2023-01-06T10:58:35.983Z,51.42
2023-01-06T11:01:17.091Z,51.32
2023-01-06T11:03:45.943Z,51.87
2023-01-06T11:06:27.820Z,51.28
2023-01-06T11:08:56.576Z,51.09
2023-01-06T11:11:28.965Z,50.81
2023-01-06T11:13:59.929Z,50.68
2023-01-06T11:16:33.822Z,51.08
2023-01-06T11:19:06.979Z,50.28
2023-01-06T11:21:49.166Z,50.23
2023-01-06T11:24:20.065Z,50.83
2023-01-06T11:26:58.429Z,50.11
2023-01-06T11:29:37.425Z,49.63
2023-01-06T11:32:15.828Z,49.95
2023-01-06T11:35:09.792Z,49.60
2023-01-06T11:37:40.783Z,49.75
2023-01-06T11:40:27.368Z,50.68
2023-01-06T11:42:58.511Z,50.99
2023-01-06T11:45:53.784Z,51.03
2023-01-06T11:48:47.859Z,50.98
2023-01-06T11:51:46.547Z,50.07
2023-01-06T11:54:35.256Z,49.15
2023-01-06T11:57:23.454Z,48.96
2023-01-06T12:00:09.572Z,49.80
2023-01-06T12:03:03.680Z,50.45
2023-01-06T12:05:39.470Z,50.21
2023-01-06T12:08:19.136Z,50.32
2023-01-06T12:10:51.579Z,50.35
2023-01-06T12:13:18.666Z,50.15
2023-01-06T12:15:51.974Z,49.37
2023-01-06T12:18:27.465Z,50.22
2023-01-06T12:20:57.041Z,49.46
2023-01-06T12:23:36.246Z,49.76
2023-01-06T12:26:31.509Z,50.23
2023-01-06T12:29:07.545Z,50.77
2023-01-06T12:35:20.476Z,49.91
2023-01-06T12:38:16.684Z,50.03
2023-01-06T12:40:55.542Z,49.95
2023-01-06T12:43:32.432Z,50.35
2023-01-06T12:46:26.898Z,50.18
2023-01-06T12:48:59.996Z,50.66
2023-01-06T12:52:02.640Z,50.58
2023-01-06T12:54:32.525Z,50.48
2023-01-06T12:57:21.845Z,50.03
2023-01-06T13:00:04.072Z,49.89
2023-01-06T13:02:59.509Z,49.80
2023-01-06T13:05:29.223Z,49.34
2023-01-06T13:08:43.769Z,49.04
2023-01-06T13:11:44.505Z,48.70
2023-01-06T13:15:00.021Z,48.33
2023-01-06T13:18:00.133Z,48.11
2023-01-06T13:20:43.426Z,47.74
2023-01-06T13:23:25.728Z,47.85
2023-01-06T13:26:24.274Z,48.16
2023-01-06T13:29:15.304Z,48.41
2023-01-06T13:32:24.913Z,49.14
2023-01-06T13:35:16.782Z,49.27
2023-01-06T13:40:55.257Z,49.78
2023-01-06T13:43:32.977Z,50.01
2023-01-06T13:46:06.760Z,49.31
2023-01-06T13:48:46.421Z,49.79
2023-01-06T13:51:16.220Z,50.14
2023-01-06T13:53:56.667Z,50.00
2023-01-06T13:56:34.444Z,50.68
2023-01-06T13:59:30.508Z,49.60
2023-01-06T14:02:00.943Z,50.16
2023-01-06T14:04:36.982Z,50.01
2023-01-06T14:07:07.367Z,49.38
2023-01-06T14:09:43.714Z,49.39
2023-01-06T14:12:27.951Z,49.55
2023-01-06T14:15:00.156Z,49.68
2023-01-06T14:17:59.029Z,49.37
2023-01-06T14:20:51.589Z,49.19
2023-01-06T14:23:38.565Z,49.27
2023-01-06T14:31:56.401Z,49.48
2023-01-06T14:45:29.353Z,50.60
2023-01-06T14:48:52.871Z,50.39
2023-01-06T15:16:41.705Z,51.32
2023-01-06T15:19:16.338Z,51.44
2023-01-06T15:21:46.112Z,51.44
2023-01-06T15:24:35.667Z,51.98
2023-01-06T15:27:20.204Z,51.51
2023-01-06T15:30:09.694Z,51.15
2023-01-06T15:32:38.386Z,51.49
2023-01-06T15:35:05.888Z,52.02
2023-01-06T15:37:35.256Z,51.71
2023-01-06T15:40:04.751Z,52.19
2023-01-06T15:42:33.324Z,52.08
2023-01-06T15:45:07.792Z,52.57
2023-01-06T15:47:59.357Z,53.29
2023-01-06T15:50:33.295Z,53.01
2023-01-06T15:53:06.304Z,53.31
2023-01-06T15:55:45.883Z,65.00
2023-01-06T16:03:55.153Z,56.37
2023-01-06T16:23:30.434Z,59.27
2023-01-06T16:26:40.259Z,59.64
2023-01-06T16:29:24.225Z,60.00
2023-01-06T16:31:51.310Z,59.95
2023-01-06T16:34:36.265Z,60.20
2023-01-06T16:37:06.326Z,60.36
2023-01-06T16:39:33.668Z,60.16
2023-01-06T16:42:55.473Z,60.05
2023-01-06T16:45:28.453Z,61.38
2023-01-06T16:47:56.415Z,61.40
2023-01-06T16:50:39.279Z,61.54
2023-01-06T16:53:12.993Z,62.77
2023-01-06T16:55:41.852Z,64.20
2023-01-06T16:58:23.754Z,64.89
2023-01-06T17:00:52.938Z,65.59
2023-01-06T17:03:30.744Z,65.64
2023-01-06T17:06:00.129Z,66.14
2023-01-06T17:08:35.184Z,67.88
2023-01-06T17:11:08.233Z,67.51
2023-01-06T17:13:35.383Z,67.80
2023-01-06T17:16:12.105Z,67.32
2023-01-06T17:18:50.066Z,68.41
2023-01-06T17:21:20.022Z,67.80
2023-01-06T17:24:13.975Z,68.37
2023-01-06T17:26:44.715Z,68.37
2023-01-06T17:29:19.814Z,69.38
2023-01-06T17:31:50.362Z,69.72
2023-01-06T17:34:24.862Z,68.35
2023-01-06T17:36:57.521Z,67.28
2023-01-06T17:39:27.610Z,66.87
2023-01-06T17:42:17.681Z,67.34
2023-01-06T17:44:46.680Z,67.84
2023-01-06T17:47:16.525Z,69.44
2023-01-06T17:49:58.013Z,69.84
2023-01-06T17:52:35.860Z,70.40
2023-01-06T17:55:44.619Z,70.83
2023-01-06T17:58:16.312Z,70.99
2023-01-06T18:00:44.502Z,70.12
2023-01-06T18:03:16.971Z,70.17
2023-01-06T18:05:49.363Z,70.00
2023-01-06T18:08:17.982Z,70.38
2023-01-06T18:10:50.666Z,70.92
2023-01-06T18:13:22.083Z,71.74
2023-01-06T18:15:53.482Z,71.99
2023-01-06T18:18:27.883Z,72.17
2023-01-06T18:21:10.772Z,71.86
2023-01-06T18:23:40.082Z,71.19
2023-01-06T18:26:26.810Z,70.71
2023-01-06T18:28:57.608Z,71.35
2023-01-06T18:31:24.539Z,72.05
2023-01-06T18:33:51.679Z,74.23
2023-01-06T18:36:18.527Z,73.11
2023-01-06T18:38:45.536Z,73.62
2023-01-06T18:41:13.507Z,73.66
2023-01-06T18:43:42.256Z,71.94
2023-01-06T18:46:21.980Z,71.39
2023-01-06T18:48:48.897Z,72.56
2023-01-06T18:51:23.638Z,73.69
2023-01-06T18:53:52.801Z,74.69
2023-01-06T18:56:25.164Z,74.43
2023-01-06T18:58:57.610Z,73.22
2023-01-06T19:01:29.298Z,73.46
2023-01-06T19:04:10.115Z,74.39
2023-01-06T19:06:55.836Z,75.83
2023-01-06T19:09:31.517Z,76.74
2023-01-06T19:12:30.501Z,75.63
2023-01-06T19:15:13.127Z,75.76
2023-01-06T19:17:41.744Z,76.56
2023-01-06T19:20:19.089Z,77.85
2023-01-06T19:22:46.540Z,77.55
2023-01-06T19:25:25.141Z,77.61
2023-01-06T19:27:55.189Z,77.82
2023-01-06T19:30:48.619Z,76.91
2023-01-06T19:33:38.401Z,78.23
2023-01-06T19:36:05.226Z,79.30
2023-01-06T19:38:41.195Z,78.80
2023-01-06T19:41:15.824Z,79.08
2023-01-06T19:43:43.139Z,80.25
2023-01-06T19:46:30.035Z,79.54
2023-01-06T19:48:59.642Z,79.07
2023-01-06T19:51:34.884Z,79.96
2023-01-06T19:54:24.965Z,79.59
2023-01-06T19:56:53.233Z,80.23
2023-01-06T19:59:26.081Z,80.64
2023-01-06T20:01:59.901Z,81.21
2023-01-06T20:04:27.827Z,81.58
2023-01-06T20:06:55.030Z,82.07
2023-01-06T20:09:22.161Z,82.04
2023-01-06T20:11:50.937Z,81.97
2023-01-06T20:14:23.963Z,81.68
2023-01-06T20:19:34.599Z,83.33
2023-01-06T20:22:06.930Z,83.06
2023-01-06T20:24:34.011Z,82.41
2023-01-06T20:27:00.963Z,82.60
2023-01-06T20:29:27.892Z,83.91
2023-01-06T20:31:55.096Z,84.54
2023-01-06T20:34:24.655Z,84.73
2023-01-06T20:36:51.512Z,83.69
2023-01-06T20:39:18.600Z,84.55
2023-01-06T20:41:51.547Z,84.08
2023-01-06T20:44:21.600Z,84.12
2023-01-06T20:46:58.362Z,83.85
2023-01-06T20:49:26.514Z,83.92
2023-01-06T20:51:53.400Z,84.17
2023-01-06T20:54:20.377Z,83.95
2023-01-06T20:56:47.573Z,84.48
2023-01-06T20:59:14.659Z,85.34
2023-01-06T21:01:41.667Z,86.49
2023-01-06T21:04:13.239Z,86.67
2023-01-06T21:06:45.555Z,86.50
2023-01-06T21:09:13.058Z,86.28
2023-01-06T21:11:39.963Z,86.72
2023-01-06T21:14:18.869Z,86.19
2023-01-06T21:16:49.236Z,86.32
2023-01-06T21:19:19.895Z,86.00
2023-01-06T21:21:47.983Z,85.76
2023-01-06T21:24:17.575Z,86.19
2023-01-06T21:26:44.737Z,86.31
2023-01-06T21:29:11.587Z,86.99
2023-01-06T21:31:40.253Z,88.20
2023-01-06T21:34:08.712Z,88.39
2023-01-06T21:36:35.741Z,88.52
2023-01-06T21:39:03.115Z,88.95
2023-01-06T21:41:48.750Z,89.63
2023-01-06T21:44:18.281Z,89.49
2023-01-06T21:46:57.777Z,89.28
2023-01-06T21:49:39.924Z,89.91
2023-01-06T21:52:16.032Z,90.46
2023-01-06T21:54:44.509Z,90.66
2023-01-06T21:57:12.247Z,90.32
2023-01-06T21:59:58.174Z,89.50
2023-01-06T22:02:29.942Z,89.95
2023-01-06T22:04:59.352Z,90.79
2023-01-06T22:07:29.110Z,92.62
2023-01-06T22:09:57.665Z,93.97
2023-01-06T22:12:32.084Z,96.36
2023-01-06T22:15:06.577Z,97.99
2023-01-06T22:17:40.058Z,98.23
2023-01-06T22:20:24.417Z,97.40
2023-01-06T22:22:58.663Z,96.59
2023-01-06T22:28:21.169Z,97.90
2023-01-06T22:30:48.301Z,96.76
2023-01-06T22:33:16.255Z,98.82
2023-01-06T22:35:43.551Z,97.47
2023-01-06T22:38:10.551Z,97.77
2023-01-06T22:40:37.448Z,96.55
2023-01-06T22:43:05.535Z,96.55
2023-01-06T22:45:34.625Z,95.82
2023-01-06T22:48:01.776Z,96.68
2023-01-06T22:53:46.065Z,96.07
2023-01-06T22:56:13.731Z,96.95
2023-01-06T22:59:04.842Z,94.88
2023-01-06T23:01:32.787Z,94.84
2023-01-06T23:04:01.077Z,96.67
2023-01-06T23:06:30.739Z,96.80
2023-01-06T23:09:00.443Z,96.95
2023-01-06T23:11:28.708Z,96.39
2023-01-06T23:13:58.074Z,97.41
2023-01-06T23:16:30.367Z,96.42
2023-01-06T23:18:57.522Z,96.74
2023-01-06T23:21:26.337Z,97.75
2023-01-06T23:23:54.164Z,97.83
2023-01-06T23:26:34.358Z,97.93
2023-01-06T23:29:01.485Z,98.03
2023-01-06T23:31:33.841Z,99.00
2023-01-06T23:34:08.863Z,100.00
2023-01-06T23:36:37.187Z,100.00
2023-01-06T23:39:06.307Z,100.00
2023-01-06T23:41:35.235Z,100.00
2023-01-06T23:44:04.177Z,100.00
2023-01-06T23:46:35.469Z,100.00
2023-01-06T23:49:03.211Z,100.00
2023-01-06T23:51:33.060Z,100.00
2023-01-06T23:54:04.550Z,100.00
2023-01-06T23:56:33.992Z,100.00
2023-01-06T23:59:02.164Z,100.00
